Time;durP1;ratioP1;P1;durP2;ratioP2;P2;SDS_P1;SDS_P2;PMS_P1;PMS_P2;Temp;Humidity;BMP_temperature;BMP_pressure;BME280_temperature;BME280_humidity;BME280_pressure;Samples;Min_cycle;Max_cycle;Signal;HPM_P1;HPM_P2
2022/07/15 00:01:33;;;;;;;3.97;1.57;;;;;;;14.97;84.66;100178.38;5092308;28;20044;-70
2022/07/15 00:03:59;;;;;;;3.53;1.57;;;;;;;14.99;84.54;100182.50;5092205;28;20032;-67
2022/07/15 00:06:25;;;;;;;4.27;1.50;;;;;;;14.99;84.43;100187.88;5092214;28;20454;-68
2022/07/15 00:08:51;;;;;;;3.97;1.73;;;;;;;14.95;84.34;100185.81;5092113;28;20047;-67
2022/07/15 00:11:16;;;;;;;2.20;1.53;;;;;;;14.92;84.06;100186.22;5091852;28;20074;-69
2022/07/15 00:13:42;;;;;;;2.30;1.47;;;;;;;14.84;84.44;100181.88;5092301;28;20100;-68
2022/07/15 00:16:07;;;;;;;7.13;1.60;;;;;;;14.88;84.22;100181.28;5092377;28;20126;-69
2022/07/15 00:18:33;;;;;;;1.67;1.17;;;;;;;14.90;84.06;100183.75;5091982;28;20028;-68
2022/07/15 00:20:58;;;;;;;1.50;1.20;;;;;;;14.88;84.21;100178.59;5091963;28;20071;-69
2022/07/15 00:23:24;;;;;;;3.23;1.53;;;;;;;14.81;83.88;100169.72;5091605;28;20081;-68
2022/07/15 00:25:50;;;;;;;3.00;1.50;;;;;;;14.83;84.18;100183.75;5092040;28;20066;-68
2022/07/15 00:28:16;;;;;;;3.27;1.50;;;;;;;14.75;84.21;100186.63;5091969;28;20472;-68
2022/07/15 00:30:42;;;;;;;2.83;1.53;;;;;;;14.79;84.10;100192.41;5091937;28;20032;-68
2022/07/15 00:33:08;;;;;;;2.10;1.40;;;;;;;14.78;84.48;100185.41;5091795;28;20032;-69
2022/07/15 00:35:36;;;;;;;3.70;1.43;;;;;;;14.75;84.11;100175.91;5091807;28;20032;-68
2022/07/15 00:38:04;;;;;;;1.48;1.20;;;;;;;14.76;83.99;100187.44;5091722;28;20518;-69
2022/07/15 00:40:30;;;;;;;1.93;1.30;;;;;;;14.70;84.05;100182.88;5092004;28;20036;-69
2022/07/15 00:42:56;;;;;;;1.73;1.30;;;;;;;14.68;84.23;100195.66;5092130;28;20189;-70
2022/07/15 00:45:23;;;;;;;2.50;1.60;;;;;;;14.62;84.68;100177.72;5091621;28;20127;-69
2022/07/15 00:47:52;;;;;;;2.53;1.60;;;;;;;14.64;84.73;100178.34;5073825;28;20062;-70
2022/07/15 00:50:18;;;;;;;2.90;1.23;;;;;;;14.55;85.10;100181.22;5091603;28;20478;-68
2022/07/15 00:52:49;;;;;;;2.53;1.43;;;;;;;14.54;85.19;100189.47;5091491;28;20050;-68
2022/07/15 00:55:16;;;;;;;1.93;1.03;;;;;;;14.43;85.00;100182.81;5091731;28;20098;-69
2022/07/15 00:57:45;;;;;;;3.03;1.30;;;;;;;14.53;85.04;100193.16;5091684;28;20410;-69
2022/07/15 01:00:12;;;;;;;2.00;1.50;;;;;;;14.54;84.96;100192.13;5091606;28;20483;-68
2022/07/15 01:02:39;;;;;;;1.40;1.30;;;;;;;14.51;84.93;100185.34;5091625;28;20045;-67
2022/07/15 01:05:06;;;;;;;1.40;1.10;;;;;;;14.49;85.19;100194.59;5091741;28;20043;-68
2022/07/15 01:07:33;;;;;;;2.47;1.23;;;;;;;14.47;85.22;100200.16;5095343;28;20032;-69
2022/07/15 01:09:58;;;;;;;1.37;1.10;;;;;;;14.44;85.21;100194.34;5095226;28;20047;-67
2022/07/15 01:12:26;;;;;;;2.93;1.40;;;;;;;14.39;85.67;100192.25;5095417;28;20031;-68
2022/07/15 01:14:51;;;;;;;1.27;1.17;;;;;;;14.38;85.42;100190.59;5077083;28;20040;-69
2022/07/15 01:17:17;;;;;;;1.83;1.50;;;;;;;14.40;85.54;100198.44;5095027;28;20032;-68
2022/07/15 01:19:42;;;;;;;2.10;1.73;;;;;;;14.37;85.49;100193.47;5094891;28;20074;-67
2022/07/15 01:22:08;;;;;;;1.80;1.50;;;;;;;14.36;85.51;100207.91;5095153;28;20392;-69
2022/07/15 01:24:34;;;;;;;6.50;1.47;;;;;;;14.32;85.90;100196.78;5094982;28;20066;-67
2022/07/15 01:27:01;;;;;;;2.67;1.30;;;;;;;14.22;85.67;100177.59;5094938;28;20411;-68
2022/07/15 01:29:28;;;;;;;3.97;1.10;;;;;;;14.31;85.60;100196.97;5094824;28;20040;-68
2022/07/15 01:31:54;;;;;;;2.40;1.37;;;;;;;14.36;85.87;100203.38;5094737;28;20054;-67
2022/07/15 01:34:20;;;;;;;2.53;1.23;;;;;;;14.35;85.62;100200.91;5094588;28;20119;-67
2022/07/15 01:36:45;;;;;;;3.90;1.57;;;;;;;14.30;86.04;100196.16;5094765;28;20030;-68
2022/07/15 01:39:11;;;;;;;2.07;1.40;;;;;;;14.37;85.54;100205.03;5094459;28;20047;-69
2022/07/15 01:41:37;;;;;;;2.63;1.60;;;;;;;14.38;85.84;100200.50;5094507;28;20066;-69
2022/07/15 01:44:03;;;;;;;2.97;1.57;;;;;;;14.36;85.29;100202.53;5094810;28;20047;-69
2022/07/15 01:46:29;;;;;;;1.10;1.00;;;;;;;14.34;85.24;100192.03;5094505;28;20093;-70
2022/07/15 01:51:38;;;;;;;2.63;1.23;;;;;;;14.38;85.26;100203.16;5094570;28;20040;-69
2022/07/15 01:54:04;;;;;;;1.97;1.40;;;;;;;14.36;85.50;100200.69;5094469;28;20043;-69
2022/07/15 01:56:29;;;;;;;2.80;1.20;;;;;;;14.34;85.36;100197.38;5094398;28;20028;-68
2022/07/15 01:58:55;;;;;;;1.10;0.97;;;;;;;14.36;85.53;100202.53;5094185;28;20034;-69
2022/07/15 02:01:20;;;;;;;5.03;1.87;;;;;;;14.38;85.54;100206.69;5075861;28;20036;-68
2022/07/15 02:03:46;;;;;;;3.63;1.63;;;;;;;14.32;85.14;100190.59;5094276;28;20043;-67
2022/07/15 02:06:11;;;;;;;3.07;1.30;;;;;;;14.42;85.12;100197.22;5094445;28;20040;-68
2022/07/15 02:08:37;;;;;;;2.80;1.30;;;;;;;14.56;84.92;100208.84;5094171;28;20040;-68
2022/07/15 02:11:02;;;;;;;5.37;1.57;;;;;;;14.66;85.49;100203.09;5094463;28;20036;-67
2022/07/15 02:13:28;;;;;;;3.33;1.43;;;;;;;14.85;84.29;100205.81;5093987;28;20063;-68
2022/07/15 02:16:14;;;;;;;2.03;1.43;;;;;;;15.01;83.46;100207.25;5078620;28;20036;-70
2022/07/15 02:18:39;;;;;;;2.47;1.37;;;;;;;15.12;83.23;100201.31;5093566;28;20437;-68
2022/07/15 02:21:05;;;;;;;1.70;1.20;;;;;;;15.25;82.79;100202.31;5094131;28;20131;-69
2022/07/15 02:23:31;;;;;;;2.37;1.60;;;;;;;15.35;82.65;100205.44;5093625;28;20040;-68
2022/07/15 02:25:56;;;;;;;2.60;1.30;;;;;;;15.45;82.77;100213.88;5093989;28;20042;-68
2022/07/15 02:28:23;;;;;;;2.73;1.50;;;;;;;15.46;81.62;100213.69;5075645;28;20051;-68
2022/07/15 02:30:48;;;;;;;5.53;1.57;;;;;;;15.50;81.29;100222.97;5093680;28;20121;-70
2022/07/15 02:33:14;;;;;;;1.67;1.20;;;;;;;15.54;81.35;100214.50;5093768;28;20467;-68
2022/07/15 02:35:42;;;;;;;5.80;1.60;;;;;;;15.56;81.39;100207.06;5093720;28;20042;-67
2022/07/15 02:38:07;;;;;;;1.83;1.10;;;;;;;15.58;81.51;100221.09;5093632;28;20071;-69
2022/07/15 02:40:36;;;;;;;3.87;1.60;;;;;;;15.51;82.21;100218.41;5076960;28;20062;-68
2022/07/15 02:43:02;;;;;;;;;;;;;;;15.54;81.91;100228.72;5094575;28;20043;-67
2022/07/15 02:45:30;;;;;;;2.20;1.30;;;;;;;15.44;82.02;100229.16;5094672;28;19923;-68
2022/07/15 02:47:55;;;;;;;3.50;1.77;;;;;;;15.40;82.25;100221.75;5095603;28;20047;-69
2022/07/15 02:50:21;;;;;;;5.17;1.40;;;;;;;15.41;82.34;100228.75;5098129;28;20035;-69
2022/07/15 02:52:48;;;;;;;2.60;1.20;;;;;;;15.31;82.46;100193.44;5093519;28;20039;-68
2022/07/15 02:55:15;;;;;;;3.13;1.80;;;;;;;15.77;81.36;100237.22;5093593;28;20128;-69
2022/07/15 02:57:40;;;;;;;4.20;1.60;;;;;;;15.94;80.17;100234.09;5093789;28;20398;-67
2022/07/15 03:00:11;;;;;;;3.13;1.77;;;;;;;16.08;80.04;100236.50;5108799;28;20038;-69
2022/07/15 03:02:37;;;;;;;2.20;1.80;;;;;;;16.50;79.52;100236.16;5093023;28;20044;-69
2022/07/15 03:05:03;;;;;;;4.70;2.03;;;;;;;17.19;77.18;100238.06;5092913;28;20441;-69
2022/07/15 03:07:29;;;;;;;1.57;1.43;;;;;;;18.12;72.37;100230.78;5093149;28;20063;-67
2022/07/15 03:09:55;;;;;;;4.80;2.93;;;;;;;19.27;68.32;100240.66;5093218;28;20491;-68
2022/07/15 03:12:21;;;;;;;1.70;1.30;;;;;;;20.66;63.45;100250.59;5093227;28;20040;-67
2022/07/15 03:14:46;;;;;;;1.83;1.20;;;;;;;20.77;62.13;100248.88;5093046;28;20062;-68
2022/07/15 03:17:12;;;;;;;1.63;1.25;;;;;;;20.75;62.32;100248.31;5093078;28;20042;-68
2022/07/15 03:19:38;;;;;;;5.00;1.27;;;;;;;20.41;62.58;100241.97;5092726;28;20040;-67
2022/07/15 03:22:03;;;;;;;1.30;1.20;;;;;;;20.21;63.19;100239.63;5092812;28;20403;-68
2022/07/15 03:24:29;;;;;;;1.55;1.38;;;;;;;20.30;63.69;100240.91;5092481;28;20040;-68
2022/07/15 03:26:56;;;;;;;4.97;1.63;;;;;;;20.33;63.25;100235.03;5092618;28;20087;-66
2022/07/15 03:29:21;;;;;;;2.55;1.40;;;;;;;21.11;61.56;100228.13;5092513;28;20040;-68
2022/07/15 03:31:46;;;;;;;3.15;1.55;;;;;;;21.32;60.13;100232.03;5092314;28;20036;-68
2022/07/15 03:34:12;;;;;;;2.42;1.40;;;;;;;22.16;57.90;100218.38;5092662;28;20193;-69
2022/07/15 03:36:38;;;;;;;4.28;1.55;;;;;;;23.31;53.34;100227.22;5092672;28;20036;-69
2022/07/15 03:39:08;;;;;;;1.98;1.50;;;;;;;24.26;50.03;100228.09;5074247;28;20117;-69
2022/07/15 03:41:35;;;;;;;2.20;1.08;;;;;;;23.64;51.24;100221.50;5092141;28;20484;-69
2022/07/15 03:44:02;;;;;;;2.35;1.20;;;;;;;22.44;53.49;100218.19;5092486;28;20039;-68
2022/07/15 03:46:29;;;;;;;6.18;2.22;;;;;;;21.95;55.85;100223.47;5092443;28;20055;-67
2022/07/15 03:48:56;;;;;;;2.67;1.05;;;;;;;22.49;54.45;100220.94;5092310;28;20085;-67
2022/07/15 03:51:24;;;;;;;2.40;0.80;;;;;;;22.41;54.54;100223.28;5092258;28;20073;-68
2022/07/15 03:53:49;;;;;;;;;;;;;;;22.61;55.81;100222.72;5092424;28;20039;-66
2022/07/15 03:56:15;;;;;;;1.23;0.82;;;;;;;22.32;54.17;100222.94;5092191;28;19920;-70
2022/07/15 03:58:40;;;;;;;2.03;1.20;;;;;;;21.82;55.89;100221.16;5092442;28;20040;-68
2022/07/15 04:01:06;;;;;;;1.40;1.27;;;;;;;21.37;56.68;100217.72;5092164;28;20028;-68
2022/07/15 04:03:33;;;;;;;1.63;0.90;;;;;;;21.42;56.83;100220.56;5091865;28;20116;-69
2022/07/15 04:05:58;;;;;;;2.40;1.30;;;;;;;21.30;55.92;100229.56;5092082;28;20036;-69
2022/07/15 04:08:25;;;;;;;2.42;1.75;;;;;;;21.12;56.74;100227.06;5073846;28;20032;-69
2022/07/15 04:10:51;;;;;;;3.47;1.40;;;;;;;22.02;54.31;100231.47;5092155;28;20055;-69
2022/07/15 04:13:18;;;;;;;2.75;1.40;;;;;;;22.96;50.75;100225.00;5092181;28;20482;-67
2022/07/15 04:15:46;;;;;;;3.75;1.83;;;;;;;23.63;48.93;100233.47;5092008;28;20045;-70
2022/07/15 04:18:11;;;;;;;2.13;1.70;;;;;;;24.57;47.00;100229.06;5091932;28;20043;-69
2022/07/15 04:20:37;;;;;;;3.10;1.55;;;;;;;25.35;45.72;100232.47;5091813;28;20032;-69
2022/07/15 04:23:02;;;;;;;3.03;1.40;;;;;;;26.04;44.27;100237.31;5091757;28;20031;-69
2022/07/15 04:25:28;;;;;;;1.50;1.00;;;;;;;26.33;41.32;100226.56;5091652;28;20379;-68
2022/07/15 04:27:55;;;;;;;5.85;2.13;;;;;;;26.15;41.25;100233.44;5091850;28;20476;-68
2022/07/15 04:30:20;;;;;;;2.03;1.20;;;;;;;26.14;41.44;100237.28;5091794;28;20043;-70
2022/07/15 04:32:46;;;;;;;2.53;1.20;;;;;;;25.07;44.15;100235.72;5092002;28;20407;-69
2022/07/15 04:35:11;;;;;;;2.35;1.20;;;;;;;24.47;46.03;100235.28;5073710;28;20109;-72
2022/07/15 04:37:37;;;;;;;6.72;1.00;;;;;;;23.82;48.29;100243.94;5091771;28;20039;-69
2022/07/15 04:40:03;;;;;;;2.13;1.40;;;;;;;22.89;50.18;100230.66;5092315;28;20401;-67
2022/07/15 04:42:28;;;;;;;4.72;1.38;;;;;;;22.03;52.64;100230.38;5096171;28;20086;-68
2022/07/15 04:44:54;;;;;;;5.03;0.80;;;;;;;21.23;55.87;100228.91;5096339;28;20585;-72
2022/07/15 04:47:20;;;;;;;4.28;0.98;;;;;;;21.01;56.12;100231.47;5110255;28;20008;-69
2022/07/15 04:52:46;;;;;;;2.80;1.35;;;;;;;22.67;52.78;100229.84;5107917;28;20098;-68
2022/07/15 04:55:13;;;;;;;3.00;1.27;;;;;;;23.18;50.29;100234.72;5094385;28;20043;-69
2022/07/15 04:57:39;;;;;;;3.67;1.08;;;;;;;23.13;51.06;100225.69;5063361;28;20478;-67
2022/07/15 05:00:06;;;;;;;3.60;1.65;;;;;;;23.20;50.70;100236.34;5096617;28;20036;-69
2022/07/15 05:02:31;;;;;;;2.53;1.60;;;;;;;23.58;49.50;100243.47;5095383;28;20122;-69
2022/07/15 05:04:57;;;;;;;4.15;1.60;;;;;;;24.14;47.77;100239.22;5094943;28;20124;-68
2022/07/15 05:07:22;;;;;;;3.30;1.13;;;;;;;24.22;46.98;100249.56;5095368;28;20036;-68
2022/07/15 05:09:48;;;;;;;2.15;1.15;;;;;;;24.46;47.15;100241.00;5095526;28;20078;-69
2022/07/15 05:12:13;;;;;;;2.08;1.38;;;;;;;24.44;46.76;100240.44;5095535;28;20073;-68
2022/07/15 05:14:40;;;;;;;4.00;1.80;;;;;;;24.64;46.52;100245.97;5095144;28;20027;-69
2022/07/15 05:17:07;;;;;;;3.05;0.90;;;;;;;24.89;45.22;100242.50;5095175;28;20031;-69
2022/07/15 05:19:33;;;;;;;2.80;1.85;;;;;;;24.92;45.63;100241.97;5094683;28;20039;-67
2022/07/15 05:21:59;;;;;;;1.10;0.80;;;;;;;24.59;46.75;100232.34;5095053;28;20415;-68
2022/07/15 05:24:25;;;;;;;1.27;0.60;;;;;;;23.13;48.89;100231.97;5095005;28;20040;-69
2022/07/15 05:26:52;;;;;;;3.25;0.98;;;;;;;21.52;53.74;100245.09;5076623;28;20104;-69
2022/07/15 05:29:21;;;;;;;0.98;0.60;;;;;;;20.45;57.80;100248.53;5110549;28;20502;-69
2022/07/15 05:31:48;;;;;;;2.05;1.10;;;;;;;19.70;59.70;100240.41;5094777;28;20042;-69
2022/07/15 05:34:14;;;;;;;4.30;1.10;;;;;;;19.63;62.49;100251.28;5094896;28;20063;-70
2022/07/15 05:36:40;;;;;;;2.33;1.10;;;;;;;19.62;60.67;100252.34;5094681;28;20114;-70
2022/07/15 05:39:05;;;;;;;2.60;1.30;;;;;;;19.65;61.65;100267.28;5094655;28;20031;-69
2022/07/15 05:41:32;;;;;;;2.55;1.00;;;;;;;19.78;61.04;100261.66;5110218;28;20123;-68
2022/07/15 05:43:57;;;;;;;2.08;0.70;;;;;;;19.85;59.62;100258.81;5094329;28;20047;-68
2022/07/15 05:46:23;;;;;;;1.13;0.85;;;;;;;19.59;61.16;100254.69;5094317;28;20395;-69
2022/07/15 05:48:51;;;;;;;1.98;0.85;;;;;;;19.41;61.51;100264.53;5094975;28;20032;-68
2022/07/15 05:51:17;;;;;;;;;;;;;;;19.38;61.13;100264.19;5095213;28;20070;-68
2022/07/15 05:53:43;;;;;;;4.90;1.42;;;;;;;19.25;61.57;100264.38;5076239;28;19959;-67
2022/07/15 05:56:08;;;;;;;2.20;1.27;;;;;;;19.18;61.76;100249.09;5094290;28;20070;-68
2022/07/15 05:58:34;;;;;;;4.13;1.02;;;;;;;19.10;60.40;100252.16;5094245;28;20036;-68
2022/07/15 06:00:59;;;;;;;1.55;0.90;;;;;;;18.91;60.35;100247.84;5094284;28;20089;-68
2022/07/15 06:03:25;;;;;;;3.28;0.98;;;;;;;18.85;60.52;100249.59;5094439;28;20105;-68
2022/07/15 06:05:50;;;;;;;4.18;1.55;;;;;;;18.91;61.25;100250.56;5094268;28;20555;-68
2022/07/15 06:08:16;;;;;;;2.25;1.45;;;;;;;19.03;60.20;100250.56;5094197;28;20075;-67
2022/07/15 06:10:42;;;;;;;2.88;1.10;;;;;;;19.04;59.49;100252.22;5094445;28;20402;-68
2022/07/15 06:13:08;;;;;;;2.88;1.23;;;;;;;18.96;60.47;100252.56;5093964;28;20035;-68
2022/07/15 06:15:33;;;;;;;2.08;0.98;;;;;;;19.03;60.92;100250.56;5093770;28;20036;-69
2022/07/15 06:17:59;;;;;;;2.00;1.20;;;;;;;19.48;58.92;100265.25;5093829;28;20067;-70
2022/07/15 06:20:25;;;;;;;3.00;0.98;;;;;;;19.54;58.22;100224.88;5093999;28;20059;-68
2022/07/15 06:22:51;;;;;;;3.67;1.08;;;;;;;19.82;57.51;100243.09;5093782;28;20097;-69
2022/07/15 06:25:16;;;;;;;2.05;1.00;;;;;;;19.77;57.47;100244.63;5093846;28;20561;-68
2022/07/15 06:27:43;;;;;;;1.50;0.90;;;;;;;19.72;57.64;100251.78;5093777;28;20177;-71
2022/07/15 06:30:34;;;;;;;2.55;1.20;;;;;;;19.50;58.01;100246.94;5095125;28;20143;-68
2022/07/15 06:33:00;;;;;;;0.95;0.75;;;;;;;19.39;58.91;100255.84;5094407;28;20126;-68
2022/07/15 06:35:25;;;;;;;2.55;0.75;;;;;;;19.30;58.37;100243.72;5093754;28;20036;-67
2022/07/15 06:37:52;;;;;;;2.38;1.00;;;;;;;19.27;59.18;100243.38;5075387;28;20044;-69
2022/07/15 06:40:18;;;;;;;3.78;0.80;;;;;;;19.36;56.06;100240.09;5075386;28;20036;-69
2022/07/15 06:42:43;;;;;;;3.25;1.33;;;;;;;19.37;56.93;100233.66;5093357;28;20649;-68
2022/07/15 06:45:10;;;;;;;3.22;1.30;;;;;;;19.27;57.27;100244.19;5093453;28;20047;-68
2022/07/15 06:47:38;;;;;;;5.53;0.93;;;;;;;19.15;57.72;100252.28;5093681;28;20036;-69
2022/07/15 06:50:05;;;;;;;3.10;0.88;;;;;;;19.00;56.32;100246.47;5093530;28;20054;-66
2022/07/15 06:52:30;;;;;;;1.25;0.90;;;;;;;18.99;56.58;100244.81;5093236;28;20031;-69
2022/07/15 06:54:56;;;;;;;1.83;1.15;;;;;;;19.11;57.77;100252.97;5093401;28;20042;-67
2022/07/15 06:57:21;;;;;;;1.90;1.15;;;;;;;19.14;58.06;100253.31;5092942;28;20036;-68
2022/07/15 06:59:47;;;;;;;2.85;1.20;;;;;;;19.08;58.43;100250.69;5093138;28;20028;-70
2022/07/15 07:02:13;;;;;;;2.45;1.10;;;;;;;19.04;58.99;100257.63;5093728;28;20476;-69
2022/07/15 07:04:39;;;;;;;3.15;1.13;;;;;;;18.87;55.63;100257.47;5093627;28;20411;-70
2022/07/15 07:07:04;;;;;;;1.30;1.00;;;;;;;18.74;56.23;100257.63;5093207;28;20040;-69
2022/07/15 07:09:30;;;;;;;3.05;0.95;;;;;;;18.62;57.93;100264.81;5093251;28;20487;-67
2022/07/15 07:11:57;;;;;;;2.70;0.88;;;;;;;18.51;58.07;100258.34;5092740;28;20118;-68
2022/07/15 07:14:23;;;;;;;2.58;1.40;;;;;;;18.49;58.47;100265.78;5093006;28;20043;-68
2022/07/15 07:16:48;;;;;;;3.67;1.50;;;;;;;18.44;59.73;100249.47;5074861;28;20051;-68
2022/07/15 07:19:14;;;;;;;3.35;1.17;;;;;;;18.45;59.99;100256.50;5092815;28;20126;-67
2022/07/15 07:21:39;;;;;;;3.30;1.15;;;;;;;18.41;60.65;100252.63;5093124;28;20034;-70
2022/07/15 07:24:07;;;;;;;2.50;1.27;;;;;;;18.58;60.32;100256.38;5075227;28;20035;-69
2022/07/15 07:26:37;;;;;;;1.25;1.10;;;;;;;18.74;60.03;100263.03;5092184;28;20119;-67
2022/07/15 07:29:04;;;;;;;2.25;2.05;;;;;;;18.76;58.45;100256.34;5092770;28;20085;-69
2022/07/15 07:31:30;;;;;;;11.20;6.13;;;;;;;18.88;59.08;100238.34;5092646;28;20039;-68
2022/07/15 07:33:57;;;;;;;4.57;1.48;;;;;;;19.17;56.75;100263.66;5092575;28;20415;-68
2022/07/15 07:36:24;;;;;;;2.75;1.25;;;;;;;19.18;55.58;100259.09;5092476;28;20035;-68
2022/07/15 07:38:49;;;;;;;3.85;1.05;;;;;;;19.16;55.18;100266.59;5092388;28;20125;-69
2022/07/15 07:41:15;;;;;;;2.53;1.45;;;;;;;19.07;56.63;100263.38;5094452;28;20028;-69
2022/07/15 07:43:40;;;;;;;15.27;1.30;;;;;;;19.18;54.91;100269.88;5093179;28;20062;-68
2022/07/15 07:46:06;;;;;;;2.20;1.10;;;;;;;19.29;54.86;100271.78;5093011;28;20032;-69
2022/07/15 07:48:32;;;;;;;3.38;0.75;;;;;;;19.42;54.23;100273.47;5074517;28;20443;-67
2022/07/15 07:50:58;;;;;;;2.17;1.05;;;;;;;19.56;52.06;100272.19;5092289;28;20036;-69
2022/07/15 07:53:23;;;;;;;3.97;1.27;;;;;;;19.53;50.99;100272.66;5092045;28;20051;-68
2022/07/15 07:55:50;;;;;;;1.30;0.90;;;;;;;19.50;51.18;100267.72;5092589;28;20028;-68
2022/07/15 07:58:16;;;;;;;2.00;1.13;;;;;;;19.41;48.89;100275.34;5092828;28;20043;-67
2022/07/15 08:00:43;;;;;;;1.80;0.98;;;;;;;19.19;48.23;100252.63;5092529;28;20040;-68
2022/07/15 08:03:09;;;;;;;1.67;1.17;;;;;;;19.22;50.03;100265.66;5093035;28;20115;-67
2022/07/15 08:05:36;;;;;;;3.08;1.75;;;;;;;19.28;51.73;100272.81;5093426;28;20126;-68
2022/07/15 08:08:17;;;;;;;2.60;1.00;;;;;;;19.37;51.38;100273.31;5094933;28;20082;-68
2022/07/15 08:10:45;;;;;;;2.10;0.90;;;;;;;19.39;49.47;100272.03;5074273;28;20056;-67
2022/07/15 08:13:12;;;;;;;1.60;1.30;;;;;;;19.35;51.40;100226.81;5092492;28;20036;-69
2022/07/15 08:15:38;;;;;;;3.00;1.27;;;;;;;19.73;52.37;100262.34;5075279;28;20040;-69
2022/07/15 08:18:04;;;;;;;2.42;1.10;;;;;;;19.78;50.41;100242.75;5096172;28;20039;-67
2022/07/15 08:20:30;;;;;;;1.23;0.80;;;;;;;19.82;50.71;100260.13;5096213;28;20444;-70
2022/07/15 08:22:58;;;;;;;1.02;0.70;;;;;;;19.76;50.90;100250.25;5096495;28;20040;-68
2022/07/15 08:25:36;;;;;;;0.80;0.70;;;;;;;19.97;50.21;100257.78;5096176;28;20079;-69
2022/07/15 08:28:06;;;;;;;4.20;1.45;;;;;;;20.08;51.41;100259.63;5096162;28;20534;-69
2022/07/15 08:30:33;;;;;;;3.38;1.50;;;;;;;20.09;52.27;100234.25;5096292;28;20082;-68
2022/07/15 08:32:59;;;;;;;3.15;1.63;;;;;;;20.20;49.31;100229.88;5095994;28;20042;-67
2022/07/15 08:35:26;;;;;;;2.13;1.10;;;;;;;20.40;49.91;100256.53;5095759;28;20123;-69
2022/07/15 08:37:51;;;;;;;2.45;0.98;;;;;;;20.29;49.78;100254.66;5095868;28;20510;-68
2022/07/15 08:40:17;;;;;;;2.38;0.85;;;;;;;20.06;49.00;100252.81;5095815;28;20040;-69
2022/07/15 08:42:45;;;;;;;4.38;0.80;;;;;;;19.87;49.88;100238.63;5095895;28;20544;-69
2022/07/15 08:45:12;;;;;;;2.20;1.27;;;;;;;19.76;50.80;100245.69;5095675;28;20499;-69
2022/07/15 08:47:41;;;;;;;2.20;1.38;;;;;;;19.79;51.42;100244.38;5095316;28;20040;-68
2022/07/15 08:50:11;;;;;;;2.40;1.05;;;;;;;19.92;51.53;100254.94;5077452;28;20059;-68
2022/07/15 08:52:37;;;;;;;3.05;1.25;;;;;;;19.79;52.75;100247.91;5095439;28;20402;-69
2022/07/15 08:55:04;;;;;;;1.40;1.05;;;;;;;19.65;51.00;100242.97;5095682;28;20043;-69
2022/07/15 08:57:29;;;;;;;4.28;1.80;;;;;;;19.57;51.97;100243.31;5095452;28;20040;-67
2022/07/15 08:59:55;;;;;;;2.70;1.33;;;;;;;19.38;52.54;100246.09;5095325;28;20050;-68
2022/07/15 09:02:22;;;;;;;3.03;1.05;;;;;;;19.29;51.63;100252.88;5095659;28;20058;-71
2022/07/15 09:05:15;;;;;;;6.88;1.70;;;;;;;19.42;52.44;100252.69;5096204;28;20036;-68
2022/07/15 09:08:01;;;;;;;4.13;1.35;;;;;;;19.56;52.78;100238.97;5096330;28;20035;-70
2022/07/15 09:10:55;;;;;;;4.85;2.05;;;;;;;19.89;53.19;100260.00;5095781;28;20039;-68
2022/07/15 09:13:38;;;;;;;4.25;1.25;;;;;;;20.03;52.62;100254.13;5095367;28;20051;-68
2022/07/15 09:16:13;;;;;;;10.68;3.55;;;;;;;20.19;52.07;100254.44;5077007;28;20036;-69
2022/07/15 09:18:43;;;;;;;1.75;1.27;;;;;;;20.23;51.13;100232.09;5095224;28;20057;-68
2022/07/15 09:21:23;;;;;;;2.95;1.60;;;;;;;20.46;50.40;100250.16;5094684;28;20054;-70
2022/07/15 09:23:51;;;;;;;2.25;1.10;;;;;;;20.44;49.74;100255.00;5094902;28;20070;-68
2022/07/15 09:26:28;;;;;;;6.05;2.47;;;;;;;20.51;51.08;100261.09;5094664;28;20032;-69
2022/07/15 09:28:56;;;;;;;2.58;1.13;;;;;;;20.53;51.03;100250.88;5094899;28;20048;-70
2022/07/15 09:34:13;;;;;;;3.47;1.00;;;;;;;20.42;49.87;100225.50;5096002;28;20067;-67
2022/07/15 09:36:42;;;;;;;2.47;1.40;;;;;;;20.60;49.70;100246.16;5095826;28;20078;-68
2022/07/15 09:39:07;;;;;;;10.63;1.35;;;;;;;20.75;48.77;100242.91;5096332;28;20047;-69
2022/07/15 09:41:39;;;;;;;1.58;0.70;;;;;;;20.85;48.00;100236.88;5096214;28;20040;-69
2022/07/15 09:44:17;;;;;;;3.40;1.20;;;;;;;21.14;48.38;100234.94;5096835;28;20402;-68
2022/07/15 09:46:51;;;;;;;6.93;1.65;;;;;;;21.33;47.28;100237.19;5097023;28;20097;-70
2022/07/15 09:49:42;;;;;;;7.80;1.98;;;;;;;21.53;47.29;100220.44;5095757;28;20062;-69
2022/07/15 09:52:10;;;;;;;2.67;0.95;;;;;;;21.70;47.71;100228.56;5094813;28;20131;-70
2022/07/15 09:54:41;;;;;;;1.67;0.97;;;;;;;21.88;46.09;100228.28;5095226;28;20127;-69
2022/07/15 09:57:14;;;;;;;3.78;0.85;;;;;;;21.94;46.35;100226.44;5094992;28;20044;-69
2022/07/15 09:59:39;;;;;;;3.38;2.45;;;;;;;22.14;44.85;100217.81;5094492;28;20451;-68
2022/07/15 10:02:05;;;;;;;2.22;0.98;;;;;;;22.30;44.37;100224.25;5094423;28;20075;-69
2022/07/15 10:04:31;;;;;;;2.42;1.60;;;;;;;22.33;43.94;100227.28;5094324;28;20036;-68
2022/07/15 10:07:02;;;;;;;1.95;0.70;;;;;;;22.08;43.08;100218.81;5094146;28;20427;-69
2022/07/15 10:09:31;;;;;;;3.80;0.60;;;;;;;21.95;43.56;100228.91;5094625;28;20031;-68
2022/07/15 10:12:02;;;;;;;2.50;1.00;;;;;;;21.74;44.14;100228.91;5094240;28;20085;-70
2022/07/15 10:14:49;;;;;;;3.65;2.28;;;;;;;21.78;44.60;100233.56;5094418;28;20035;-67
2022/07/15 10:17:38;;;;;;;3.47;1.63;;;;;;;21.54;45.78;100224.78;5093897;28;20086;-69
2022/07/15 10:20:24;;;;;;;3.05;0.73;;;;;;;21.30;46.76;100243.09;5094242;28;20032;-69
2022/07/15 10:23:29;;;;;;;9.82;2.33;;;;;;;20.89;47.83;100243.44;5094062;28;20071;-68
2022/07/15 10:26:14;;;;;;;7.32;1.55;;;;;;;20.63;49.18;100251.06;5093903;28;20444;-68
2022/07/15 10:28:49;;;;;;;5.10;2.45;;;;;;;20.48;48.38;100252.63;5094052;28;20077;-69
2022/07/15 10:31:17;;;;;;;3.22;1.42;;;;;;;20.33;49.67;100250.44;5093723;28;20063;-69
2022/07/15 10:34:03;;;;;;;3.60;1.27;;;;;;;20.40;50.01;100256.53;5093651;28;20509;-66
2022/07/15 10:36:47;;;;;;;2.08;1.13;;;;;;;20.26;50.10;100252.44;5093678;28;20032;-68
2022/07/15 10:39:15;;;;;;;1.70;0.80;;;;;;;20.05;51.61;100252.00;5092591;28;20044;-69
2022/07/15 10:41:46;;;;;;;4.13;1.63;;;;;;;20.08;52.72;100248.00;5093573;28;20066;-68
2022/07/15 10:44:13;;;;;;;1.25;1.02;;;;;;;20.03;51.10;100246.00;5093354;28;20047;-67
2022/07/15 10:46:38;;;;;;;2.90;0.77;;;;;;;20.10;50.60;100245.88;5093437;28;20467;-69
2022/07/15 10:49:04;;;;;;;4.30;1.90;;;;;;;20.06;53.02;100245.53;5093744;28;20070;-69
2022/07/15 10:51:35;;;;;;;5.20;3.40;;;;;;;20.09;50.65;100250.47;5093554;28;20123;-69
2022/07/15 10:54:04;;;;;;;5.90;3.30;;;;;;;20.05;49.85;100238.50;5093151;28;20105;-69
2022/07/15 10:56:31;;;;;;;2.83;2.13;;;;;;;20.21;50.62;100234.22;5093066;28;20036;-68
2022/07/15 10:59:21;;;;;;;7.15;2.50;;;;;;;20.45;50.77;100237.72;5093106;28;20119;-70
2022/07/15 11:01:49;;;;;;;5.75;1.80;;;;;;;20.60;50.60;100235.31;5093048;28;20039;-69
2022/07/15 11:04:24;;;;;;;;;;;;;;;20.80;51.14;100239.47;5093557;28;20039;-68
2022/07/15 11:07:01;;;;;;;6.95;1.85;;;;;;;20.96;50.27;100238.69;5092917;28;19923;-70
2022/07/15 11:09:58;;;;;;;9.60;1.50;;;;;;;21.12;49.44;100227.06;5092712;28;20035;-69
2022/07/15 11:12:29;;;;;;;3.22;0.82;;;;;;;21.21;47.97;100225.59;5092822;28;20747;-66
2022/07/15 11:14:58;;;;;;;1.17;0.55;;;;;;;21.10;47.37;100223.75;5093376;28;20036;-70
2022/07/15 11:17:38;;;;;;;2.95;1.08;;;;;;;20.94;48.43;100216.47;5093118;28;20121;-69
2022/07/15 11:20:11;;;;;;;2.80;0.70;;;;;;;20.65;46.55;100208.34;5108123;28;20020;-69
2022/07/15 11:22:41;;;;;;;3.85;0.82;;;;;;;20.63;47.03;100213.19;5118604;28;20049;-68
2022/07/15 11:25:16;;;;;;;3.58;1.27;;;;;;;20.69;48.14;100212.22;5111606;28;20035;-70
2022/07/15 11:27:54;;;;;;;1.13;0.90;;;;;;;20.82;48.31;100204.88;5117703;28;20115;-69
2022/07/15 11:30:53;;;;;;;2.70;2.08;;;;;;;21.09;48.17;100211.28;5105517;28;20439;-67
2022/07/15 11:33:25;;;;;;;4.53;3.17;;;;;;;21.26;49.25;100212.16;5098304;28;20136;-69
2022/07/15 11:35:55;;;;;;;6.30;3.10;;;;;;;21.35;47.53;100199.03;5098887;28;20040;-70
2022/07/15 11:38:24;;;;;;;5.10;1.35;;;;;;;21.54;46.39;100199.59;5098252;28;20043;-69
2022/07/15 11:46:24;;;;;;;0.95;0.50;;;;;;;21.28;45.02;100199.19;5082239;28;20398;-69